Kodiak, AK

5:02 AM AKDT on July 23, 2014 (GMT -0800)
Bob Plyler on Selief Lane (KAKKODIA1) Elev 115 ft | 57.80 °N, 152.39 °W | Change Station

Current weather conditions updated 1 second ago

Overcast
Overcast
54.5 °F
Feels Like 54.5 °F
N
0.0
Wind Variable Wind from NNE
Gusts 0.0 mph

Today is forecast to be Much Cooler than yesterday. Showers possible in the afternoon.

Today
High -- | Low -- °F
--% Chance of Precip.
Yesterday
High -- | Low -- °F
Precip. -- in
5:46 AM 10:44 PM
Waning Crescent, 10% visible
Pressure 29.88 in
Visibility 10.0 miles
Clouds Mostly Cloudy 7000 ft
Overcast 8500 ft
Dew Point 42 °F
Humidity 62%
Rainfall 0.00 in
Snow Depth Not available.
UV 0 out of 12
Pollen Not available.
Air Quality Not available.
Flu Activity Not available.
METAR PADQ 231253Z 28005KT 10SM BKN070 OVC085 13/09 A2988 RMK AO2 SLP118 T01330094

More Conditions Fewer Conditions

Pressure 29.88 in
Visibility 10.0 miles
Clouds Mostly Cloudy 7000 ft
Overcast 8500 ft
Dew Point 42 °F
Humidity 62%
Rainfall 0.00 in
Snow Depth Not available.
UV 0 out of 12
Pollen Not available.
Air Quality Not available.
Flu Activity Not available.
METAR PADQ 231253Z 28005KT 10SM BKN070 OVC085 13/09 A2988 RMK AO2 SLP118 T01330094

More Conditions Fewer Conditions

10-Day Weather Forecast

Almanac

Astronomy

Jul. 23, 2014 Rise Set
Actual Time 5:46 AM AKDT 10:44 PM AKDT
Civil Twilight 4:48 AM AKDT 11:42 PM AKDT
Nautical Twilight 2:40 AM AKDT 1:40 AM AKDT
Astronomical Twilight Sun does not rise Sun does not rise
Moon 3:20 AM AKDT 8:15 PM AKDT
Length of Visible Light 18h 53m
Length of Day
16h 57m
Tomorrow will be 3m 49s shorter.
Waning Crescent, 10% of the Moon is Illuminated
Today
Waning Crescent
Jul 26
New
Aug 3
First Quarter
Aug 10
Full
Aug 17
Last Quarter

Today's Extremes

State Highs State Lows

Community

WunderPhotos

Upload Photos

1,736,584 photos uploaded!

Nearby

Snow Depth

Station Depth Elevation
Port Graham 0 in 300 ft
Nuka Glacier 164 in 1250 ft
Mcneil Canyon 1 in 1320 ft
MF Bradley River 27 in 2300 ft
Cooper Lake 13 in 1200 ft

Earthquake Activity

City Distance Mag. Time & Date
No recent earthquake activity has been reported nearby.
Minimum magnitude displayed is 2.5.

Coastal Water Temperatures

Place Temperature
No Stations Reporting

Nearby Weather Stations

Station Location Temp. Dew Point Humidity Wind Precip. Elev Updated Type
Bob Plyler on Selief Lane, Kodiak, AK 54.5 °F 42 °F 62% NNE  at  0.0 mph 0.00 in / hr 115 ft 5:02 AM AKDT Rapid Fire
AKDOT Pasagshak Road Kodiak @ MP 2.1, Kodiak, AK 52 °F 50 °F 95% SSE  at  3 mph 0.00 in / hr 380 ft 4:21 AM AKDT MADIS

Show More Stations Show Fewer Stations